Terminal Aerodrome Forecast
Issued by NWS

Home | Current Version | Previous Version | Graphics & Text | Print | Product List | Glossary Off
Versions: 1 2 3 4 5 6 7 8 9 10 11 12 13 14 15 16

000
FTUS43 KDDC 210520
TAFGCK
TAF
KGCK 210520Z 2106/2206 04011KT P6SM SKC
     FM211400 07010KT P6SM BKN060
     FM211800 10010KT P6SM OVC040
     FM212300 10009KT P6SM OVC025=

USA.gov is the U.S. government's official web portal to all federal, state and local government web resources and services.